sensor_id;sensor_type;location;lat;lon;timestamp;temperature;humidity
8882;DHT22;4477;48.736;9.176;2023-06-22T00:01:18;18.60;99.90
8882;DHT22;4477;48.736;9.176;2023-06-22T00:03:45;18.60;99.90
8882;DHT22;4477;48.736;9.176;2023-06-22T00:06:13;18.50;99.90
8882;DHT22;4477;48.736;9.176;2023-06-22T00:08:40;18.50;99.90
8882;DHT22;4477;48.736;9.176;2023-06-22T00:11:07;18.50;99.90
8882;DHT22;4477;48.736;9.176;2023-06-22T00:13:34;18.40;99.90
8882;DHT22;4477;48.736;9.176;2023-06-22T00:16:00;18.50;99.90
8882;DHT22;4477;48.736;9.176;2023-06-22T00:18:27;18.50;99.90
8882;DHT22;4477;48.736;9.176;2023-06-22T00:20:56;18.50;99.90
8882;DHT22;4477;48.736;9.176;2023-06-22T00:23:26;18.50;99.90
8882;DHT22;4477;48.736;9.176;2023-06-22T00:25:53;18.40;99.90
8882;DHT22;4477;48.736;9.176;2023-06-22T00:28:20;18.30;99.90
8882;DHT22;4477;48.736;9.176;2023-06-22T00:30:48;18.40;99.90
8882;DHT22;4477;48.736;9.176;2023-06-22T00:33:16;18.40;99.90
8882;DHT22;4477;48.736;9.176;2023-06-22T00:35:46;18.50;99.90
8882;DHT22;4477;48.736;9.176;2023-06-22T00:38:13;18.50;99.90
8882;DHT22;4477;48.736;9.176;2023-06-22T00:40:43;18.50;99.90
8882;DHT22;4477;48.736;9.176;2023-06-22T00:43:15;18.50;99.90
8882;DHT22;4477;48.736;9.176;2023-06-22T00:45:41;18.60;99.90
8882;DHT22;4477;48.736;9.176;2023-06-22T00:48:08;18.60;99.90
8882;DHT22;4477;48.736;9.176;2023-06-22T00:50:36;18.60;99.90
8882;DHT22;4477;48.736;9.176;2023-06-22T00:53:05;18.60;99.90
8882;DHT22;4477;48.736;9.176;2023-06-22T00:55:35;18.50;99.90
8882;DHT22;4477;48.736;9.176;2023-06-22T00:58:06;18.50;99.90
8882;DHT22;4477;48.736;9.176;2023-06-22T01:00:36;18.40;99.90
8882;DHT22;4477;48.736;9.176;2023-06-22T01:05:43;18.20;99.90
8882;DHT22;4477;48.736;9.176;2023-06-22T01:08:23;18.20;99.90
8882;DHT22;4477;48.736;9.176;2023-06-22T01:10:57;18.20;99.90
8882;DHT22;4477;48.736;9.176;2023-06-22T01:13:31;18.20;99.90
8882;DHT22;4477;48.736;9.176;2023-06-22T01:16:02;18.00;99.90
8882;DHT22;4477;48.736;9.176;2023-06-22T01:18:31;17.90;99.90
8882;DHT22;4477;48.736;9.176;2023-06-22T01:20:59;17.70;99.90
8882;DHT22;4477;48.736;9.176;2023-06-22T01:23:33;17.60;99.90
8882;DHT22;4477;48.736;9.176;2023-06-22T01:26:08;17.50;99.90
8882;DHT22;4477;48.736;9.176;2023-06-22T01:28:46;17.50;99.90
8882;DHT22;4477;48.736;9.176;2023-06-22T01:31:16;17.40;99.90
8882;DHT22;4477;48.736;9.176;2023-06-22T01:33:44;17.30;99.90
8882;DHT22;4477;48.736;9.176;2023-06-22T01:36:13;17.30;99.90
8882;DHT22;4477;48.736;9.176;2023-06-22T01:38:42;17.40;99.90
8882;DHT22;4477;48.736;9.176;2023-06-22T01:41:09;17.40;99.90
8882;DHT22;4477;48.736;9.176;2023-06-22T01:43:37;17.30;99.90
8882;DHT22;4477;48.736;9.176;2023-06-22T01:46:05;17.20;99.90
8882;DHT22;4477;48.736;9.176;2023-06-22T01:48:32;17.30;99.90
8882;DHT22;4477;48.736;9.176;2023-06-22T01:51:00;17.30;99.90
8882;DHT22;4477;48.736;9.176;2023-06-22T01:53:26;17.40;99.90
8882;DHT22;4477;48.736;9.176;2023-06-22T01:55:53;17.30;99.90
8882;DHT22;4477;48.736;9.176;2023-06-22T01:58:21;17.20;99.90
8882;DHT22;4477;48.736;9.176;2023-06-22T02:00:55;17.30;99.90
8882;DHT22;4477;48.736;9.176;2023-06-22T02:03:27;17.30;99.90
8882;DHT22;4477;48.736;9.176;2023-06-22T02:06:05;17.30;99.90
8882;DHT22;4477;48.736;9.176;2023-06-22T02:08:39;17.20;99.90
8882;DHT22;4477;48.736;9.176;2023-06-22T02:11:08;17.20;99.90
8882;DHT22;4477;48.736;9.176;2023-06-22T02:13:36;17.20;99.90
8882;DHT22;4477;48.736;9.176;2023-06-22T02:16:08;17.20;99.90
8882;DHT22;4477;48.736;9.176;2023-06-22T02:18:36;17.20;99.90
8882;DHT22;4477;48.736;9.176;2023-06-22T02:21:05;17.10;99.90
8882;DHT22;4477;48.736;9.176;2023-06-22T02:23:32;17.00;99.90
8882;DHT22;4477;48.736;9.176;2023-06-22T02:26:01;17.00;99.90
8882;DHT22;4477;48.736;9.176;2023-06-22T02:28:28;17.20;99.90
8882;DHT22;4477;48.736;9.176;2023-06-22T02:30:55;17.20;99.90
8882;DHT22;4477;48.736;9.176;2023-06-22T02:33:21;17.20;99.90
8882;DHT22;4477;48.736;9.176;2023-06-22T02:35:50;17.10;99.90
8882;DHT22;4477;48.736;9.176;2023-06-22T02:38:17;17.00;99.90
8882;DHT22;4477;48.736;9.176;2023-06-22T02:40:45;17.00;99.90
8882;DHT22;4477;48.736;9.176;2023-06-22T02:43:12;16.90;99.90
8882;DHT22;4477;48.736;9.176;2023-06-22T02:45:39;16.90;99.90
8882;DHT22;4477;48.736;9.176;2023-06-22T02:48:05;16.80;99.90
8882;DHT22;4477;48.736;9.176;2023-06-22T02:50:32;16.80;99.90
8882;DHT22;4477;48.736;9.176;2023-06-22T02:53:00;16.70;99.90
8882;DHT22;4477;48.736;9.176;2023-06-22T02:55:27;16.70;99.90
8882;DHT22;4477;48.736;9.176;2023-06-22T02:57:54;16.80;99.90
8882;DHT22;4477;48.736;9.176;2023-06-22T03:00:23;16.80;99.90
8882;DHT22;4477;48.736;9.176;2023-06-22T03:02:55;16.70;99.90
8882;DHT22;4477;48.736;9.176;2023-06-22T03:05:22;16.70;99.90
8882;DHT22;4477;48.736;9.176;2023-06-22T03:07:50;16.50;99.90
8882;DHT22;4477;48.736;9.176;2023-06-22T03:10:18;16.40;99.90
8882;DHT22;4477;48.736;9.176;2023-06-22T03:12:45;16.40;99.90
8882;DHT22;4477;48.736;9.176;2023-06-22T03:15:12;16.40;99.90
8882;DHT22;4477;48.736;9.176;2023-06-22T03:17:40;16.30;99.90
8882;DHT22;4477;48.736;9.176;2023-06-22T03:20:08;16.30;99.90
8882;DHT22;4477;48.736;9.176;2023-06-22T03:22:36;16.30;99.90
8882;DHT22;4477;48.736;9.176;2023-06-22T03:25:04;16.30;99.90
8882;DHT22;4477;48.736;9.176;2023-06-22T03:27:36;16.20;99.90
8882;DHT22;4477;48.736;9.176;2023-06-22T03:30:04;16.20;99.90
8882;DHT22;4477;48.736;9.176;2023-06-22T03:32:31;16.20;99.90
8882;DHT22;4477;48.736;9.176;2023-06-22T03:34:58;16.20;99.90
8882;DHT22;4477;48.736;9.176;2023-06-22T03:37:25;16.20;99.90
8882;DHT22;4477;48.736;9.176;2023-06-22T03:39:52;16.20;99.90
8882;DHT22;4477;48.736;9.176;2023-06-22T03:42:18;16.30;99.90
8882;DHT22;4477;48.736;9.176;2023-06-22T03:44:47;16.30;99.90
8882;DHT22;4477;48.736;9.176;2023-06-22T03:47:14;16.40;99.90
8882;DHT22;4477;48.736;9.176;2023-06-22T03:49:40;16.40;99.90
8882;DHT22;4477;48.736;9.176;2023-06-22T03:52:07;16.40;99.90
8882;DHT22;4477;48.736;9.176;2023-06-22T03:54:36;16.40;99.90
8882;DHT22;4477;48.736;9.176;2023-06-22T03:57:03;16.40;99.90
8882;DHT22;4477;48.736;9.176;2023-06-22T03:59:30;16.50;99.90
8882;DHT22;4477;48.736;9.176;2023-06-22T04:01:59;16.50;99.90
8882;DHT22;4477;48.736;9.176;2023-06-22T04:04:26;16.60;99.90
8882;DHT22;4477;48.736;9.176;2023-06-22T04:06:53;16.70;99.90
8882;DHT22;4477;48.736;9.176;2023-06-22T04:09:20;16.80;99.90
8882;DHT22;4477;48.736;9.176;2023-06-22T04:11:47;16.90;99.90
8882;DHT22;4477;48.736;9.176;2023-06-22T04:14:14;17.00;99.90
8882;DHT22;4477;48.736;9.176;2023-06-22T04:16:40;17.00;99.90
8882;DHT22;4477;48.736;9.176;2023-06-22T04:19:09;17.10;99.90
8882;DHT22;4477;48.736;9.176;2023-06-22T04:21:41;17.20;99.90
8882;DHT22;4477;48.736;9.176;2023-06-22T04:24:08;17.40;99.90
8882;DHT22;4477;48.736;9.176;2023-06-22T04:26:35;17.50;99.90
8882;DHT22;4477;48.736;9.176;2023-06-22T04:29:03;17.70;99.90
8882;DHT22;4477;48.736;9.176;2023-06-22T04:31:31;17.70;99.90
8882;DHT22;4477;48.736;9.176;2023-06-22T04:34:02;17.80;99.90
8882;DHT22;4477;48.736;9.176;2023-06-22T04:36:34;17.90;99.90
8882;DHT22;4477;48.736;9.176;2023-06-22T04:39:04;18.10;99.90
8882;DHT22;4477;48.736;9.176;2023-06-22T04:41:31;18.30;99.90
8882;DHT22;4477;48.736;9.176;2023-06-22T04:44:08;18.60;99.90
8882;DHT22;4477;48.736;9.176;2023-06-22T04:46:36;18.80;99.90
8882;DHT22;4477;48.736;9.176;2023-06-22T04:49:07;19.00;99.90
8882;DHT22;4477;48.736;9.176;2023-06-22T04:51:38;19.10;99.90
8882;DHT22;4477;48.736;9.176;2023-06-22T04:54:05;19.40;99.90
8882;DHT22;4477;48.736;9.176;2023-06-22T04:56:32;19.70;99.90
8882;DHT22;4477;48.736;9.176;2023-06-22T04:58:58;20.10;99.90
8882;DHT22;4477;48.736;9.176;2023-06-22T05:01:25;20.40;99.90
8882;DHT22;4477;48.736;9.176;2023-06-22T05:03:52;20.70;99.90
8882;DHT22;4477;48.736;9.176;2023-06-22T05:06:21;20.80;99.90
8882;DHT22;4477;48.736;9.176;2023-06-22T05:08:51;21.00;99.90
8882;DHT22;4477;48.736;9.176;2023-06-22T05:11:19;21.20;99.90
8882;DHT22;4477;48.736;9.176;2023-06-22T05:13:46;21.40;99.90
8882;DHT22;4477;48.736;9.176;2023-06-22T05:16:13;21.70;99.90
8882;DHT22;4477;48.736;9.176;2023-06-22T05:18:40;21.90;99.90
8882;DHT22;4477;48.736;9.176;2023-06-22T05:21:07;22.20;99.90
8882;DHT22;4477;48.736;9.176;2023-06-22T05:23:34;22.40;99.90
8882;DHT22;4477;48.736;9.176;2023-06-22T05:26:02;22.70;99.90
8882;DHT22;4477;48.736;9.176;2023-06-22T05:28:29;23.00;99.90
8882;DHT22;4477;48.736;9.176;2023-06-22T05:30:56;23.30;99.90
8882;DHT22;4477;48.736;9.176;2023-06-22T05:33:24;23.50;99.90
8882;DHT22;4477;48.736;9.176;2023-06-22T05:35:51;23.90;99.90
8882;DHT22;4477;48.736;9.176;2023-06-22T05:38:18;24.00;99.80
8882;DHT22;4477;48.736;9.176;2023-06-22T05:40:45;24.20;97.50
8882;DHT22;4477;48.736;9.176;2023-06-22T05:43:13;24.20;97.50
8882;DHT22;4477;48.736;9.176;2023-06-22T05:45:40;24.20;97.00
8882;DHT22;4477;48.736;9.176;2023-06-22T05:48:07;24.00;96.40
8882;DHT22;4477;48.736;9.176;2023-06-22T05:50:34;24.10;96.50
8882;DHT22;4477;48.736;9.176;2023-06-22T05:53:01;24.30;96.40
8882;DHT22;4477;48.736;9.176;2023-06-22T05:55:28;24.50;94.90
8882;DHT22;4477;48.736;9.176;2023-06-22T05:57:54;24.50;94.10
8882;DHT22;4477;48.736;9.176;2023-06-22T06:00:23;24.50;94.40
8882;DHT22;4477;48.736;9.176;2023-06-22T06:02:49;24.70;93.70
8882;DHT22;4477;48.736;9.176;2023-06-22T06:05:17;24.80;92.60
8882;DHT22;4477;48.736;9.176;2023-06-22T06:07:45;25.10;92.90
8882;DHT22;4477;48.736;9.176;2023-06-22T06:10:12;25.00;92.10
8882;DHT22;4477;48.736;9.176;2023-06-22T06:12:39;24.80;91.60
8882;DHT22;4477;48.736;9.176;2023-06-22T06:15:07;24.60;92.20
8882;DHT22;4477;48.736;9.176;2023-06-22T06:17:35;24.30;93.20
8882;DHT22;4477;48.736;9.176;2023-06-22T06:20:02;24.10;94.00
8882;DHT22;4477;48.736;9.176;2023-06-22T06:22:32;24.10;94.50
8882;DHT22;4477;48.736;9.176;2023-06-22T06:24:59;24.60;93.50
8882;DHT22;4477;48.736;9.176;2023-06-22T06:27:26;25.10;92.10
8882;DHT22;4477;48.736;9.176;2023-06-22T06:29:54;25.90;90.90
8882;DHT22;4477;48.736;9.176;2023-06-22T06:32:21;26.60;88.40
8882;DHT22;4477;48.736;9.176;2023-06-22T06:34:49;27.10;85.90
8882;DHT22;4477;48.736;9.176;2023-06-22T06:37:16;27.50;82.10
8882;DHT22;4477;48.736;9.176;2023-06-22T06:39:43;27.80;79.80
8882;DHT22;4477;48.736;9.176;2023-06-22T06:42:10;27.80;77.70
8882;DHT22;4477;48.736;9.176;2023-06-22T06:44:38;28.30;77.50
8882;DHT22;4477;48.736;9.176;2023-06-22T06:47:05;28.70;74.00
8882;DHT22;4477;48.736;9.176;2023-06-22T06:49:33;28.80;73.00
8882;DHT22;4477;48.736;9.176;2023-06-22T06:52:02;29.30;72.70
8882;DHT22;4477;48.736;9.176;2023-06-22T06:54:28;29.90;69.20
8882;DHT22;4477;48.736;9.176;2023-06-22T06:56:55;30.20;68.20
8882;DHT22;4477;48.736;9.176;2023-06-22T06:59:23;30.30;68.10
8882;DHT22;4477;48.736;9.176;2023-06-22T07:01:50;30.40;65.80
8882;DHT22;4477;48.736;9.176;2023-06-22T07:04:17;30.30;66.30
8882;DHT22;4477;48.736;9.176;2023-06-22T07:06:44;30.20;67.20
8882;DHT22;4477;48.736;9.176;2023-06-22T07:09:12;30.10;65.30
8882;DHT22;4477;48.736;9.176;2023-06-22T07:11:39;30.40;65.10
8882;DHT22;4477;48.736;9.176;2023-06-22T07:14:06;30.30;64.00
8882;DHT22;4477;48.736;9.176;2023-06-22T07:16:33;30.30;63.40
8882;DHT22;4477;48.736;9.176;2023-06-22T07:18:59;30.20;65.20
8882;DHT22;4477;48.736;9.176;2023-06-22T07:21:26;30.10;63.10
8882;DHT22;4477;48.736;9.176;2023-06-22T07:23:53;30.00;64.80
8882;DHT22;4477;48.736;9.176;2023-06-22T07:26:22;29.90;64.50
8882;DHT22;4477;48.736;9.176;2023-06-22T07:28:49;29.90;62.10
8882;DHT22;4477;48.736;9.176;2023-06-22T07:31:16;29.70;62.30
8882;DHT22;4477;48.736;9.176;2023-06-22T07:33:43;29.90;63.60
8882;DHT22;4477;48.736;9.176;2023-06-22T07:36:10;30.00;64.00
8882;DHT22;4477;48.736;9.176;2023-06-22T07:38:37;30.20;61.40
8882;DHT22;4477;48.736;9.176;2023-06-22T07:41:03;30.30;62.80
8882;DHT22;4477;48.736;9.176;2023-06-22T07:43:32;30.20;61.90
8882;DHT22;4477;48.736;9.176;2023-06-22T07:45:59;30.00;62.40
8882;DHT22;4477;48.736;9.176;2023-06-22T07:48:26;29.90;64.20
8882;DHT22;4477;48.736;9.176;2023-06-22T07:50:53;30.30;65.90
8882;DHT22;4477;48.736;9.176;2023-06-22T07:53:20;30.50;64.50
8882;DHT22;4477;48.736;9.176;2023-06-22T07:55:47;30.70;60.70
8882;DHT22;4477;48.736;9.176;2023-06-22T07:58:14;30.60;60.60
8882;DHT22;4477;48.736;9.176;2023-06-22T08:00:43;30.80;62.30
8882;DHT22;4477;48.736;9.176;2023-06-22T08:03:10;30.90;61.60
8882;DHT22;4477;48.736;9.176;2023-06-22T08:05:37;30.80;60.90
8882;DHT22;4477;48.736;9.176;2023-06-22T08:08:04;31.00;60.70
8882;DHT22;4477;48.736;9.176;2023-06-22T08:10:31;30.90;59.50
8882;DHT22;4477;48.736;9.176;2023-06-22T08:12:58;30.90;59.20
8882;DHT22;4477;48.736;9.176;2023-06-22T08:15:26;30.90;58.80
8882;DHT22;4477;48.736;9.176;2023-06-22T08:17:55;31.00;61.60
8882;DHT22;4477;48.736;9.176;2023-06-22T08:20:23;30.60;58.30
8882;DHT22;4477;48.736;9.176;2023-06-22T08:22:50;30.60;59.00
8882;DHT22;4477;48.736;9.176;2023-06-22T08:25:16;30.60;59.10
8882;DHT22;4477;48.736;9.176;2023-06-22T08:27:45;30.70;60.20
8882;DHT22;4477;48.736;9.176;2023-06-22T08:30:13;30.40;59.30
8882;DHT22;4477;48.736;9.176;2023-06-22T08:32:40;30.50;59.70
8882;DHT22;4477;48.736;9.176;2023-06-22T08:35:08;30.70;58.50
8882;DHT22;4477;48.736;9.176;2023-06-22T08:37:35;31.20;59.00
8882;DHT22;4477;48.736;9.176;2023-06-22T08:40:06;32.10;57.90
8882;DHT22;4477;48.736;9.176;2023-06-22T08:42:36;32.50;55.80
8882;DHT22;4477;48.736;9.176;2023-06-22T08:45:03;32.20;56.60
8882;DHT22;4477;48.736;9.176;2023-06-22T08:47:30;31.30;57.20
8882;DHT22;4477;48.736;9.176;2023-06-22T08:49:57;31.00;60.90
8882;DHT22;4477;48.736;9.176;2023-06-22T08:52:25;31.20;58.70
8882;DHT22;4477;48.736;9.176;2023-06-22T08:54:52;31.30;58.70
8882;DHT22;4477;48.736;9.176;2023-06-22T08:57:19;31.90;55.10
8882;DHT22;4477;48.736;9.176;2023-06-22T08:59:46;32.30;56.30
8882;DHT22;4477;48.736;9.176;2023-06-22T09:02:13;32.20;54.50
8882;DHT22;4477;48.736;9.176;2023-06-22T09:04:40;32.20;58.00
8882;DHT22;4477;48.736;9.176;2023-06-22T09:07:07;32.20;55.70
8882;DHT22;4477;48.736;9.176;2023-06-22T09:09:35;32.10;57.50
8882;DHT22;4477;48.736;9.176;2023-06-22T09:12:02;32.30;57.70
8882;DHT22;4477;48.736;9.176;2023-06-22T09:14:29;32.10;56.30
8882;DHT22;4477;48.736;9.176;2023-06-22T09:16:56;32.00;56.20
8882;DHT22;4477;48.736;9.176;2023-06-22T09:19:23;32.30;55.40
8882;DHT22;4477;48.736;9.176;2023-06-22T09:21:50;32.90;54.80
8882;DHT22;4477;48.736;9.176;2023-06-22T09:24:17;33.40;53.80
8882;DHT22;4477;48.736;9.176;2023-06-22T09:26:45;33.60;54.90
8882;DHT22;4477;48.736;9.176;2023-06-22T09:29:12;33.00;53.00
8882;DHT22;4477;48.736;9.176;2023-06-22T09:31:39;32.80;53.70
8882;DHT22;4477;48.736;9.176;2023-06-22T09:34:06;32.80;55.40
8882;DHT22;4477;48.736;9.176;2023-06-22T09:36:33;33.40;56.00
8882;DHT22;4477;48.736;9.176;2023-06-22T09:39:00;33.90;53.30
8882;DHT22;4477;48.736;9.176;2023-06-22T09:41:31;34.20;53.70
8882;DHT22;4477;48.736;9.176;2023-06-22T09:44:00;34.50;51.70
8882;DHT22;4477;48.736;9.176;2023-06-22T09:46:26;34.70;52.30
8882;DHT22;4477;48.736;9.176;2023-06-22T09:48:54;34.80;49.80
8882;DHT22;4477;48.736;9.176;2023-06-22T09:51:22;34.60;50.60
8882;DHT22;4477;48.736;9.176;2023-06-22T09:53:49;34.30;51.80
8882;DHT22;4477;48.736;9.176;2023-06-22T09:56:16;33.70;51.90
8882;DHT22;4477;48.736;9.176;2023-06-22T09:58:43;33.90;56.60
8882;DHT22;4477;48.736;9.176;2023-06-22T10:01:11;34.60;52.80
8882;DHT22;4477;48.736;9.176;2023-06-22T10:03:40;35.50;51.80
8882;DHT22;4477;48.736;9.176;2023-06-22T10:06:07;35.90;50.80
8882;DHT22;4477;48.736;9.176;2023-06-22T10:08:34;35.40;49.60
8882;DHT22;4477;48.736;9.176;2023-06-22T10:11:01;35.20;50.50
8882;DHT22;4477;48.736;9.176;2023-06-22T10:13:28;34.70;51.90
8882;DHT22;4477;48.736;9.176;2023-06-22T10:15:55;34.30;52.00
8882;DHT22;4477;48.736;9.176;2023-06-22T10:18:23;34.10;54.70
8882;DHT22;4477;48.736;9.176;2023-06-22T10:20:51;34.00;54.00
8882;DHT22;4477;48.736;9.176;2023-06-22T10:23:17;34.10;53.00
8882;DHT22;4477;48.736;9.176;2023-06-22T10:25:45;34.50;52.50
8882;DHT22;4477;48.736;9.176;2023-06-22T10:28:11;35.20;52.40
8882;DHT22;4477;48.736;9.176;2023-06-22T10:30:39;35.70;53.00
8882;DHT22;4477;48.736;9.176;2023-06-22T10:33:06;36.00;49.40
8882;DHT22;4477;48.736;9.176;2023-06-22T10:35:35;35.70;49.60
8882;DHT22;4477;48.736;9.176;2023-06-22T10:38:03;35.80;51.50
8882;DHT22;4477;48.736;9.176;2023-06-22T10:40:30;36.60;50.10
8882;DHT22;4477;48.736;9.176;2023-06-22T10:42:56;36.90;50.60
8882;DHT22;4477;48.736;9.176;2023-06-22T10:45:23;37.00;46.10
8882;DHT22;4477;48.736;9.176;2023-06-22T10:47:50;36.40;46.60
8882;DHT22;4477;48.736;9.176;2023-06-22T10:50:18;35.80;49.10
8882;DHT22;4477;48.736;9.176;2023-06-22T10:52:47;35.50;52.30
8882;DHT22;4477;48.736;9.176;2023-06-22T10:55:13;35.20;49.90
8882;DHT22;4477;48.736;9.176;2023-06-22T10:57:40;35.00;49.80
8882;DHT22;4477;48.736;9.176;2023-06-22T11:00:10;34.50;50.20
8882;DHT22;4477;48.736;9.176;2023-06-22T11:02:37;34.40;53.00
8882;DHT22;4477;48.736;9.176;2023-06-22T11:05:05;34.50;52.00
8882;DHT22;4477;48.736;9.176;2023-06-22T11:07:32;34.60;53.10
8882;DHT22;4477;48.736;9.176;2023-06-22T11:10:00;34.90;52.20
8882;DHT22;4477;48.736;9.176;2023-06-22T11:12:27;35.10;52.10
8882;DHT22;4477;48.736;9.176;2023-06-22T11:14:53;34.70;50.10
8882;DHT22;4477;48.736;9.176;2023-06-22T11:17:22;34.40;51.00
8882;DHT22;4477;48.736;9.176;2023-06-22T11:19:49;34.30;52.80
8882;DHT22;4477;48.736;9.176;2023-06-22T11:22:16;34.10;52.40
8882;DHT22;4477;48.736;9.176;2023-06-22T11:24:43;33.70;52.10
8882;DHT22;4477;48.736;9.176;2023-06-22T11:27:11;33.70;56.60
8882;DHT22;4477;48.736;9.176;2023-06-22T11:29:38;34.00;52.00
8882;DHT22;4477;48.736;9.176;2023-06-22T11:32:07;33.90;51.30
8882;DHT22;4477;48.736;9.176;2023-06-22T11:34:34;33.50;51.80
8882;DHT22;4477;48.736;9.176;2023-06-22T11:37:01;33.40;52.60
8882;DHT22;4477;48.736;9.176;2023-06-22T11:39:28;33.50;54.00
8882;DHT22;4477;48.736;9.176;2023-06-22T11:41:54;34.30;55.40
8882;DHT22;4477;48.736;9.176;2023-06-22T11:44:23;35.20;51.80
8882;DHT22;4477;48.736;9.176;2023-06-22T11:46:49;35.90;50.80
8882;DHT22;4477;48.736;9.176;2023-06-22T11:49:16;36.00;49.80
8882;DHT22;4477;48.736;9.176;2023-06-22T11:51:43;35.80;50.50
8882;DHT22;4477;48.736;9.176;2023-06-22T11:54:13;35.90;50.20
8882;DHT22;4477;48.736;9.176;2023-06-22T11:56:39;35.80;51.20
8882;DHT22;4477;48.736;9.176;2023-06-22T11:59:06;35.40;51.70
8882;DHT22;4477;48.736;9.176;2023-06-22T12:01:34;35.20;50.90
8882;DHT22;4477;48.736;9.176;2023-06-22T12:04:01;35.30;50.60
8882;DHT22;4477;48.736;9.176;2023-06-22T12:06:31;35.50;51.00
8882;DHT22;4477;48.736;9.176;2023-06-22T12:08:57;35.10;50.90
8882;DHT22;4477;48.736;9.176;2023-06-22T12:11:24;34.50;51.40
8882;DHT22;4477;48.736;9.176;2023-06-22T12:13:51;33.80;53.40
8882;DHT22;4477;48.736;9.176;2023-06-22T12:16:18;33.60;54.60
8882;DHT22;4477;48.736;9.176;2023-06-22T12:18:48;33.50;55.10
8882;DHT22;4477;48.736;9.176;2023-06-22T12:21:15;33.50;53.80
8882;DHT22;4477;48.736;9.176;2023-06-22T12:23:42;33.70;54.20
8882;DHT22;4477;48.736;9.176;2023-06-22T12:26:09;33.60;53.10
8882;DHT22;4477;48.736;9.176;2023-06-22T12:28:36;33.50;54.50
8882;DHT22;4477;48.736;9.176;2023-06-22T12:31:02;33.50;55.00
8882;DHT22;4477;48.736;9.176;2023-06-22T12:33:29;33.20;54.10
8882;DHT22;4477;48.736;9.176;2023-06-22T12:35:58;32.90;55.60
8882;DHT22;4477;48.736;9.176;2023-06-22T12:38:25;32.40;53.70
8882;DHT22;4477;48.736;9.176;2023-06-22T12:40:52;31.80;55.40
8882;DHT22;4477;48.736;9.176;2023-06-22T12:43:19;31.50;56.00
8882;DHT22;4477;48.736;9.176;2023-06-22T12:45:46;31.40;57.40
8882;DHT22;4477;48.736;9.176;2023-06-22T12:48:12;31.20;57.10
8882;DHT22;4477;48.736;9.176;2023-06-22T12:50:39;31.10;58.60
8882;DHT22;4477;48.736;9.176;2023-06-22T12:53:07;31.00;58.90
8882;DHT22;4477;48.736;9.176;2023-06-22T12:55:34;31.00;58.80
8882;DHT22;4477;48.736;9.176;2023-06-22T12:58:01;31.00;58.60
8882;DHT22;4477;48.736;9.176;2023-06-22T13:00:28;30.90;58.90
8882;DHT22;4477;48.736;9.176;2023-06-22T13:02:55;30.80;58.80
8882;DHT22;4477;48.736;9.176;2023-06-22T13:05:21;30.70;60.90
8882;DHT22;4477;48.736;9.176;2023-06-22T13:07:48;30.60;61.10
8882;DHT22;4477;48.736;9.176;2023-06-22T13:10:17;30.60;59.60
8882;DHT22;4477;48.736;9.176;2023-06-22T13:12:44;30.70;62.60
8882;DHT22;4477;48.736;9.176;2023-06-22T13:15:10;30.70;60.00
8882;DHT22;4477;48.736;9.176;2023-06-22T13:17:37;30.80;60.60
8882;DHT22;4477;48.736;9.176;2023-06-22T13:20:05;31.10;59.50
8882;DHT22;4477;48.736;9.176;2023-06-22T13:22:33;31.40;60.10
8882;DHT22;4477;48.736;9.176;2023-06-22T13:25:06;31.90;57.50
8882;DHT22;4477;48.736;9.176;2023-06-22T13:27:34;32.60;57.10
8882;DHT22;4477;48.736;9.176;2023-06-22T13:30:01;32.90;55.40
8882;DHT22;4477;48.736;9.176;2023-06-22T13:32:29;32.90;54.40
8882;DHT22;4477;48.736;9.176;2023-06-22T13:34:56;32.80;55.20
8882;DHT22;4477;48.736;9.176;2023-06-22T13:37:22;33.00;54.30
8882;DHT22;4477;48.736;9.176;2023-06-22T13:39:49;33.10;55.30
8882;DHT22;4477;48.736;9.176;2023-06-22T13:42:16;33.30;54.70
8882;DHT22;4477;48.736;9.176;2023-06-22T13:44:44;33.50;54.40
8882;DHT22;4477;48.736;9.176;2023-06-22T13:47:11;33.50;53.70
8882;DHT22;4477;48.736;9.176;2023-06-22T13:49:38;33.30;53.60
8882;DHT22;4477;48.736;9.176;2023-06-22T13:52:05;33.30;54.00
8882;DHT22;4477;48.736;9.176;2023-06-22T13:54:35;33.30;54.30
8882;DHT22;4477;48.736;9.176;2023-06-22T13:57:02;33.50;53.70
8882;DHT22;4477;48.736;9.176;2023-06-22T13:59:29;33.40;53.10
8882;DHT22;4477;48.736;9.176;2023-06-22T14:01:57;33.60;53.00
8882;DHT22;4477;48.736;9.176;2023-06-22T14:04:24;33.90;51.10
8882;DHT22;4477;48.736;9.176;2023-06-22T14:06:51;34.50;52.40
8882;DHT22;4477;48.736;9.176;2023-06-22T14:09:18;35.60;49.10
8882;DHT22;4477;48.736;9.176;2023-06-22T14:11:45;36.30;46.20
8882;DHT22;4477;48.736;9.176;2023-06-22T14:14:11;36.40;45.10
8882;DHT22;4477;48.736;9.176;2023-06-22T14:16:38;36.40;47.50
8882;DHT22;4477;48.736;9.176;2023-06-22T14:19:06;37.00;46.40
8882;DHT22;4477;48.736;9.176;2023-06-22T14:21:33;37.40;42.50
8882;DHT22;4477;48.736;9.176;2023-06-22T14:24:00;37.70;43.10
8882;DHT22;4477;48.736;9.176;2023-06-22T14:26:27;36.90;45.00
8882;DHT22;4477;48.736;9.176;2023-06-22T14:28:54;35.50;46.20
8882;DHT22;4477;48.736;9.176;2023-06-22T14:31:22;34.40;47.20
8882;DHT22;4477;48.736;9.176;2023-06-22T14:33:49;34.10;46.20
8882;DHT22;4477;48.736;9.176;2023-06-22T14:36:18;34.10;48.90
8882;DHT22;4477;48.736;9.176;2023-06-22T14:38:45;34.70;46.70
8882;DHT22;4477;48.736;9.176;2023-06-22T14:41:12;35.90;40.90
8882;DHT22;4477;48.736;9.176;2023-06-22T14:43:44;36.40;41.40
8882;DHT22;4477;48.736;9.176;2023-06-22T14:46:11;37.10;39.80
8882;DHT22;4477;48.736;9.176;2023-06-22T14:48:38;37.90;36.40
8882;DHT22;4477;48.736;9.176;2023-06-22T14:51:05;38.50;36.10
8882;DHT22;4477;48.736;9.176;2023-06-22T14:53:33;38.90;34.40
8882;DHT22;4477;48.736;9.176;2023-06-22T14:56:00;38.40;33.00
8882;DHT22;4477;48.736;9.176;2023-06-22T14:58:27;37.50;34.50
8882;DHT22;4477;48.736;9.176;2023-06-22T15:00:55;36.70;34.80
8882;DHT22;4477;48.736;9.176;2023-06-22T15:03:22;35.70;36.40
8882;DHT22;4477;48.736;9.176;2023-06-22T15:05:53;34.40;37.50
8882;DHT22;4477;48.736;9.176;2023-06-22T15:08:20;32.90;38.10
8882;DHT22;4477;48.736;9.176;2023-06-22T15:10:49;32.20;40.80
8882;DHT22;4477;48.736;9.176;2023-06-22T15:13:16;32.10;41.20
8882;DHT22;4477;48.736;9.176;2023-06-22T15:15:43;32.00;42.00
8882;DHT22;4477;48.736;9.176;2023-06-22T15:18:10;32.80;40.80
8882;DHT22;4477;48.736;9.176;2023-06-22T15:20:37;33.40;38.80
8882;DHT22;4477;48.736;9.176;2023-06-22T15:23:05;33.80;38.60
8882;DHT22;4477;48.736;9.176;2023-06-22T15:25:34;34.80;37.90
8882;DHT22;4477;48.736;9.176;2023-06-22T15:28:02;35.20;36.20
8882;DHT22;4477;48.736;9.176;2023-06-22T15:30:29;35.20;36.70
8882;DHT22;4477;48.736;9.176;2023-06-22T15:32:57;35.00;36.80
8882;DHT22;4477;48.736;9.176;2023-06-22T15:35:24;35.20;38.00
8882;DHT22;4477;48.736;9.176;2023-06-22T15:37:51;34.70;37.50
8882;DHT22;4477;48.736;9.176;2023-06-22T15:40:18;34.00;38.50
8882;DHT22;4477;48.736;9.176;2023-06-22T15:42:45;33.20;38.70
8882;DHT22;4477;48.736;9.176;2023-06-22T15:45:14;32.90;38.60
8882;DHT22;4477;48.736;9.176;2023-06-22T15:47:41;33.10;39.10
8882;DHT22;4477;48.736;9.176;2023-06-22T15:50:08;33.00;39.90
8882;DHT22;4477;48.736;9.176;2023-06-22T15:52:35;32.50;40.80
8882;DHT22;4477;48.736;9.176;2023-06-22T15:55:03;32.10;40.80
8882;DHT22;4477;48.736;9.176;2023-06-22T15:57:30;31.70;40.90
8882;DHT22;4477;48.736;9.176;2023-06-22T15:59:56;31.00;42.40
8882;DHT22;4477;48.736;9.176;2023-06-22T16:02:25;30.50;45.00
8882;DHT22;4477;48.736;9.176;2023-06-22T16:04:53;30.20;45.00
8882;DHT22;4477;48.736;9.176;2023-06-22T16:07:22;29.90;44.80